Terminal Aerodrome Forecast
Issued by NWS Duluth, MN

Home | Current Version | Previous Version | Text Only | Print | Product List | Glossary On
Versions: 1 2 3 4 5 6 7 8 9 10 11 12 13 14 15 16 17 18 19 20 21 22 23
000
FTUS43 KDLH 272300
TAFDLH
TAF
KDLH 272338Z 2800/2824 34006KT P6SM SCT007 BKN040
     FM280800 VRB04KT P6SM FEW050
     FM281400 34010KT P6SM SKC
     FM281900 34011KT P6SM VCSH BKN050=

USA.gov is the U.S. government's official web portal to all federal, state and local government web resources and services.